EDQM

Hof-Plauen Airport

Hof, Germany
TAF EDQM 181700Z 1818/1903 VRB03KT CAVOK
Issued Valid From Valid To
Jan-18 @ 17:00 UTC
(10 hours ago)
Jan-18 @ 18:00 UTC
(9 hours ago)
Jan-19 @ 03:00 UTC
(in 19 minutes)
Jan-18 @ 18:00 to Jan-19 @ 03:00
TAF EDQM 181700Z 1818/1903 VRB03KT CAVOK
Wind Visibility Clouds Conditions
Variable at 3 knots 10,000+ meters
  • No significant clouds
TAF EDQM 181700Z 1818/1903 VRB03KT CAVOK
Issued Jan-18 @ 17:00 UTC
(10 hours ago)
Valid From Jan-18 @ 18:00 UTC
(9 hours ago)
Valid To Jan-19 @ 03:00 UTC
(in 19 minutes)
Jan-18 @ 18:00 - Jan-19 @ 03:00
Wind Visibility
Variable at 3 knots 10,000+ meters
Clouds
  • No significant clouds
Conditions